createdAt,value
2022-11-23T00:01:39.264Z,32.60
2022-11-23T00:06:42.066Z,32.40
2022-11-23T00:16:46.556Z,32.20
2022-11-23T00:21:48.560Z,31.90
2022-11-23T00:26:50.603Z,31.80
2022-11-23T00:31:52.893Z,31.70
2022-11-23T00:41:57.459Z,31.60
2022-11-23T00:46:59.458Z,31.60
2022-11-23T00:52:01.960Z,31.80
2022-11-23T00:57:04.165Z,32.00
2022-11-23T01:02:06.226Z,32.30
2022-11-23T01:07:08.318Z,32.40
2022-11-23T01:17:13.628Z,32.70
2022-11-23T01:22:15.657Z,32.80
2022-11-23T01:27:17.755Z,33.00
2022-11-23T01:32:19.770Z,33.20
2022-11-23T01:37:21.867Z,33.20
2022-11-23T01:42:44.056Z,33.20
2022-11-23T01:47:46.104Z,33.20
2022-11-23T01:52:48.304Z,33.10
2022-11-23T01:57:50.378Z,33.20
2022-11-23T02:02:59.006Z,33.10
2022-11-23T02:08:04.514Z,33.20
2022-11-23T02:13:09.959Z,33.20
2022-11-23T02:18:19.359Z,33.10
2022-11-23T02:23:33.881Z,33.30
2022-11-23T02:28:52.556Z,33.30
2022-11-23T02:39:01.685Z,33.30
2022-11-23T02:44:07.061Z,33.30
2022-11-23T02:54:11.630Z,33.40
2022-11-23T02:59:13.655Z,33.40
2022-11-23T03:04:19.871Z,33.30
2022-11-23T03:09:28.133Z,33.40
2022-11-23T03:14:31.314Z,33.30
2022-11-23T03:19:33.545Z,33.20
2022-11-23T03:29:39.678Z,33.20
2022-11-23T03:39:47.482Z,33.30
2022-11-23T03:44:52.720Z,33.10
2022-11-23T03:49:54.730Z,33.20
2022-11-23T03:54:56.819Z,33.20
2022-11-23T03:59:58.903Z,33.20
2022-11-23T04:05:02.015Z,33.20
2022-11-23T04:10:08.827Z,33.10
2022-11-23T04:20:18.148Z,33.20
2022-11-23T04:25:20.237Z,33.10
2022-11-23T04:30:23.489Z,33.10
2022-11-23T04:40:31.675Z,33.00
2022-11-23T04:45:39.626Z,33.00
2022-11-23T04:50:46.503Z,33.00
2022-11-23T04:55:50.198Z,33.00
2022-11-23T05:00:52.570Z,33.00
2022-11-23T05:05:57.640Z,33.00
2022-11-23T05:11:01.585Z,32.90
2022-11-23T05:16:04.759Z,32.80
2022-11-23T05:21:07.390Z,32.90
2022-11-23T05:26:09.512Z,32.80
2022-11-23T05:31:13.162Z,31.60
2022-11-23T05:41:20.226Z,31.60
2022-11-23T05:46:24.817Z,32.60
2022-11-23T05:51:27.216Z,31.60
2022-11-23T05:56:29.445Z,31.60
2022-11-23T06:01:33.162Z,32.60
2022-11-23T06:11:38.638Z,32.50
2022-11-23T06:16:41.612Z,32.60
2022-11-23T06:21:50.220Z,32.70
2022-11-23T06:26:53.765Z,32.70
2022-11-23T06:31:56.058Z,32.60
2022-11-23T06:42:16.889Z,32.70
2022-11-23T06:47:26.217Z,32.50
2022-11-23T06:52:29.100Z,32.50
2022-11-23T06:57:32.169Z,32.40
2022-11-23T07:02:34.917Z,32.40
2022-11-23T07:12:41.053Z,32.00
2022-11-23T07:17:46.360Z,32.10
2022-11-23T07:27:56.363Z,32.00
2022-11-23T07:38:09.094Z,32.40
2022-11-23T07:43:11.487Z,32.50
2022-11-23T07:48:13.664Z,32.60
2022-11-23T07:53:15.765Z,32.50
2022-11-23T07:58:18.626Z,32.60
2022-11-23T08:03:29.074Z,32.90
2022-11-23T08:08:31.741Z,32.90
2022-11-23T08:13:37.293Z,33.00
2022-11-23T08:18:39.362Z,32.70
2022-11-23T08:23:41.407Z,33.00
2022-11-23T08:28:43.538Z,33.00
2022-11-23T08:33:45.627Z,33.10
2022-11-23T08:38:51.235Z,33.10
2022-11-23T08:43:53.305Z,32.90
2022-11-23T08:48:55.478Z,33.00
2022-11-23T08:53:57.604Z,32.80
2022-11-23T08:58:59.699Z,31.60
2022-11-23T09:04:04.559Z,31.70
2022-11-23T09:09:06.601Z,31.70
2022-11-23T09:14:08.757Z,33.00
2022-11-23T09:19:13.751Z,31.90
2022-11-23T09:24:15.894Z,31.60
2022-11-23T09:29:17.983Z,31.50
2022-11-23T09:34:20.145Z,31.40
2022-11-23T09:39:22.235Z,31.10
2022-11-23T09:44:39.126Z,30.50
2022-11-23T09:49:57.866Z,30.50
2022-11-23T09:55:22.138Z,30.20
2022-11-23T10:00:24.446Z,30.00
2022-11-23T10:05:32.488Z,29.80
2022-11-23T10:10:44.374Z,29.40
2022-11-23T10:16:41.842Z,29.60
2022-11-23T10:21:43.922Z,29.30
2022-11-23T10:26:49.701Z,28.50
2022-11-23T10:31:56.826Z,28.60
2022-11-23T10:36:59.505Z,28.60
2022-11-23T10:42:09.434Z,28.50
2022-11-23T10:47:11.538Z,28.00
2022-11-23T10:52:31.486Z,27.50
2022-11-23T10:57:45.443Z,27.60
2022-11-23T11:02:49.845Z,27.20
2022-11-23T11:07:54.119Z,27.30
2022-11-23T11:12:56.237Z,27.10
2022-11-23T11:17:59.620Z,26.80
2022-11-23T11:23:17.868Z,26.10
2022-11-23T11:28:35.198Z,25.70
2022-11-23T11:33:46.700Z,25.10
2022-11-23T11:39:15.029Z,25.20
2022-11-23T11:44:21.662Z,25.10
2022-11-23T11:49:31.334Z,24.70
2022-11-23T11:54:44.406Z,24.80
2022-11-23T11:59:52.869Z,24.40
2022-11-23T12:05:04.926Z,24.00
2022-11-23T12:10:10.904Z,22.90
2022-11-23T12:15:49.087Z,22.40
2022-11-23T12:21:05.359Z,21.70
2022-11-23T12:26:23.811Z,21.90
2022-11-23T12:31:45.825Z,21.10
2022-11-23T12:37:00.835Z,21.50
2022-11-23T12:42:14.486Z,21.20
2022-11-23T12:47:37.716Z,20.70
2022-11-23T12:53:05.632Z,19.40
2022-11-23T12:58:22.364Z,20.30
2022-11-23T13:03:43.023Z,19.20
2022-11-23T13:09:00.120Z,19.80
2022-11-23T13:14:39.934Z,18.00
2022-11-23T13:20:11.682Z,19.00
2022-11-23T13:25:13.776Z,18.60
2022-11-23T13:30:45.523Z,18.40
2022-11-23T13:35:55.292Z,18.00
2022-11-23T13:40:57.411Z,18.40
2022-11-23T13:46:22.289Z,18.10
2022-11-23T13:51:35.068Z,17.40
2022-11-23T13:56:41.038Z,17.20
2022-11-23T14:02:07.436Z,17.10
2022-11-23T14:07:17.629Z,17.30
2022-11-23T14:12:37.364Z,17.40
2022-11-23T14:17:51.497Z,17.40
2022-11-23T14:22:58.967Z,17.80
2022-11-23T14:33:24.330Z,17.30
2022-11-23T14:43:47.785Z,17.40
2022-11-23T14:48:49.875Z,17.30
2022-11-23T14:54:00.195Z,17.40
2022-11-23T14:59:28.434Z,17.60
2022-11-23T15:04:38.675Z,17.90
2022-11-23T15:10:10.863Z,18.50
2022-11-23T15:15:19.371Z,18.80
2022-11-23T15:20:23.418Z,19.30
2022-11-23T15:25:25.648Z,19.30
2022-11-23T15:30:30.594Z,19.70
2022-11-23T15:35:38.683Z,19.20
2022-11-23T15:40:50.969Z,19.40
2022-11-23T15:45:52.997Z,20.10
2022-11-23T15:51:00.846Z,19.90
2022-11-23T15:56:05.843Z,20.60
2022-11-23T16:01:13.253Z,20.70
2022-11-23T16:06:39.539Z,20.70
2022-11-23T16:11:45.096Z,20.40
2022-11-23T16:16:58.270Z,20.90
2022-11-23T16:22:05.276Z,20.60
2022-11-23T16:27:14.733Z,21.30
2022-11-23T16:32:31.354Z,21.60
2022-11-23T16:37:33.449Z,21.80
2022-11-23T16:42:35.552Z,22.00
2022-11-23T16:47:55.120Z,21.70
2022-11-23T16:53:00.808Z,22.10
2022-11-23T16:58:05.406Z,22.30
2022-11-23T17:03:14.365Z,22.30
2022-11-23T17:08:23.055Z,22.40
2022-11-23T17:13:28.841Z,22.50
2022-11-23T17:18:30.900Z,22.80
2022-11-23T17:23:33.447Z,23.30
2022-11-23T17:28:35.598Z,23.60
2022-11-23T17:33:38.788Z,23.50
2022-11-23T17:38:46.524Z,23.70
2022-11-23T17:43:48.722Z,24.30
2022-11-23T17:49:02.564Z,24.30
2022-11-23T17:54:04.846Z,25.10
2022-11-23T17:59:07.092Z,24.60
2022-11-23T18:04:09.334Z,24.40
2022-11-23T18:09:12.222Z,24.80
2022-11-23T18:14:14.497Z,24.70
2022-11-23T18:19:16.643Z,24.80
2022-11-23T18:24:19.018Z,25.40
2022-11-23T18:29:21.172Z,25.20
2022-11-23T18:34:23.277Z,25.40
2022-11-23T18:39:25.403Z,25.90
2022-11-23T18:44:27.536Z,25.90
2022-11-23T18:49:29.731Z,26.10
2022-11-23T18:54:31.839Z,27.20
2022-11-23T19:00:04.013Z,26.70
2022-11-23T19:04:55.998Z,27.30
2022-11-23T19:09:58.076Z,27.90
2022-11-23T19:15:00.247Z,27.00
2022-11-23T19:20:03.581Z,27.20
2022-11-23T19:25:06.141Z,27.40
2022-11-23T19:30:09.060Z,28.60
2022-11-23T19:35:11.206Z,28.00
2022-11-23T19:40:13.439Z,27.90
2022-11-23T19:45:15.596Z,28.50
2022-11-23T19:50:17.762Z,28.00
2022-11-23T19:55:19.857Z,28.40
2022-11-23T20:00:21.993Z,28.00
2022-11-23T20:05:24.183Z,28.80
2022-11-23T20:10:26.292Z,28.00
2022-11-23T20:15:28.373Z,28.00
2022-11-23T20:20:31.856Z,28.10
2022-11-23T20:25:37.908Z,28.10
2022-11-23T20:30:42.222Z,28.10
2022-11-23T20:35:44.697Z,28.10
2022-11-23T20:40:46.791Z,28.30
2022-11-23T20:45:48.847Z,28.40
2022-11-23T20:50:51.141Z,28.60
2022-11-23T20:55:53.298Z,28.60
2022-11-23T21:00:55.477Z,28.50
2022-11-23T21:05:57.830Z,28.50
2022-11-23T21:11:32.765Z,28.20
2022-11-23T21:16:45.573Z,28.10
2022-11-23T21:21:47.664Z,28.10
2022-11-23T21:26:50.117Z,28.10
2022-11-23T21:31:52.310Z,28.00
2022-11-23T21:36:55.742Z,29.20
2022-11-23T21:41:57.916Z,29.20
2022-11-23T21:47:00.139Z,29.30
2022-11-23T21:52:02.770Z,29.00
2022-11-23T21:57:04.960Z,29.20
2022-11-23T22:02:11.715Z,29.40
2022-11-23T22:07:14.010Z,29.60
2022-11-23T22:12:16.152Z,29.60
2022-11-23T22:17:18.281Z,29.70
2022-11-23T22:22:20.367Z,29.60
2022-11-23T22:27:22.462Z,29.70
2022-11-23T22:32:24.545Z,29.70
2022-11-23T22:37:26.611Z,29.70
2022-11-23T22:42:28.829Z,29.70
2022-11-23T22:47:30.877Z,29.70
2022-11-23T22:52:32.915Z,29.60
2022-11-23T22:57:35.063Z,29.50
2022-11-23T23:07:40.201Z,29.50
2022-11-23T23:12:42.400Z,29.40
2022-11-23T23:22:46.966Z,29.30
2022-11-23T23:27:49.020Z,29.30
2022-11-23T23:32:53.456Z,29.30
2022-11-23T23:37:55.476Z,29.70
2022-11-23T23:43:00.440Z,29.70
2022-11-23T23:48:02.488Z,29.60
2022-11-23T23:53:04.547Z,29.70
2022-11-23T23:58:06.634Z,29.80
